createdAt,value
2022-10-31T00:00:58.012Z,13.23
2022-10-31T00:05:51.466Z,17.23
2022-10-31T00:08:18.767Z,10.55
2022-10-31T00:10:46.911Z,14.80
2022-10-31T00:13:15.080Z,15.75
2022-10-31T00:15:42.283Z,16.73
2022-10-31T00:18:10.545Z,14.27
2022-10-31T00:20:38.144Z,14.57
2022-10-31T00:23:06.187Z,15.98
2022-10-31T00:25:38.220Z,13.82
2022-10-31T00:28:07.047Z,17.70
2022-10-31T00:30:34.315Z,9.23
2022-10-31T00:33:03.986Z,17.00
2022-10-31T00:35:32.434Z,12.15
2022-10-31T00:37:59.327Z,10.50
2022-10-31T00:40:26.076Z,9.35
2022-10-31T00:42:54.076Z,13.70
2022-10-31T00:45:20.884Z,9.73
2022-10-31T00:47:48.070Z,15.68
2022-10-31T00:50:14.962Z,8.63
2022-10-31T00:52:41.740Z,10.52
2022-10-31T00:55:08.586Z,11.85
2022-10-31T00:57:35.317Z,12.23
2022-10-31T01:00:04.352Z,11.35
2022-10-31T01:02:31.247Z,11.63
2022-10-31T01:04:58.046Z,6.95
2022-10-31T01:07:24.747Z,9.52
2022-10-31T01:09:51.425Z,8.00
2022-10-31T01:12:20.036Z,10.90
2022-10-31T01:14:46.737Z,8.95
2022-10-31T01:17:14.320Z,10.43
2022-10-31T01:19:41.168Z,12.98
2022-10-31T01:22:07.988Z,8.45
2022-10-31T01:24:34.853Z,10.73
2022-10-31T01:27:02.830Z,14.35
2022-10-31T01:29:33.439Z,9.70
2022-10-31T01:32:00.220Z,12.35
2022-10-31T01:34:26.915Z,9.68
2022-10-31T01:36:53.587Z,11.75
2022-10-31T01:39:22.080Z,9.77
2022-10-31T01:41:51.986Z,9.07
2022-10-31T01:44:18.636Z,10.98
2022-10-31T01:46:51.691Z,8.35
2022-10-31T01:49:26.150Z,12.20
2022-10-31T01:51:59.418Z,8.35
2022-10-31T01:54:33.076Z,11.52
2022-10-31T01:57:00.321Z,10.35
2022-10-31T01:59:31.279Z,7.38
2022-10-31T02:01:58.072Z,7.75
2022-10-31T02:04:26.282Z,11.65
2022-10-31T02:07:01.845Z,12.52
2022-10-31T02:09:31.731Z,9.55
2022-10-31T02:12:00.251Z,14.77
2022-10-31T02:14:31.243Z,10.35
2022-10-31T02:16:58.615Z,7.55
2022-10-31T02:22:36.389Z,6.82
2022-10-31T02:25:06.778Z,9.38
2022-10-31T02:27:40.620Z,9.60
2022-10-31T02:30:16.955Z,13.57
2022-10-31T02:33:06.324Z,4.65
2022-10-31T02:36:04.810Z,9.80
2022-10-31T02:39:01.341Z,11.47
2022-10-31T02:41:55.307Z,10.13
2022-10-31T02:44:31.262Z,7.78
2022-10-31T02:47:07.307Z,8.33
2022-10-31T02:49:49.210Z,8.68
2022-10-31T02:52:25.955Z,9.77
2022-10-31T02:54:53.018Z,15.27
2022-10-31T02:57:40.856Z,7.05
2022-10-31T03:00:10.004Z,8.68
2022-10-31T03:03:01.214Z,9.93
2022-10-31T03:05:57.054Z,9.23
2022-10-31T03:08:33.118Z,8.85
2022-10-31T03:11:06.009Z,14.15
2022-10-31T03:13:57.927Z,9.48
2022-10-31T03:16:47.597Z,6.78
2022-10-31T03:19:40.075Z,7.97
2022-10-31T03:22:24.566Z,10.55
2022-10-31T03:24:54.540Z,13.23
2022-10-31T03:27:35.612Z,7.35
2022-10-31T03:30:06.420Z,11.70
2022-10-31T03:32:50.539Z,11.13
2022-10-31T03:35:20.554Z,12.35
2022-10-31T03:37:49.570Z,5.55
2022-10-31T03:40:19.292Z,6.00
2022-10-31T03:42:57.281Z,11.65
2022-10-31T03:45:31.991Z,9.25
2022-10-31T03:48:00.674Z,9.32
2022-10-31T03:50:35.452Z,9.50
2022-10-31T03:53:08.742Z,5.20
2022-10-31T03:55:49.379Z,9.45
2022-10-31T03:58:25.048Z,8.35
2022-10-31T04:00:56.683Z,9.80
2022-10-31T04:03:30.724Z,10.00
2022-10-31T04:06:08.214Z,10.85
2022-10-31T04:08:42.902Z,8.05
2022-10-31T04:11:16.175Z,11.25
2022-10-31T04:13:48.021Z,10.55
2022-10-31T04:16:22.838Z,9.77
2022-10-31T04:18:49.681Z,14.77
2022-10-31T04:21:17.724Z,12.40
2022-10-31T04:26:19.067Z,5.40
2022-10-31T04:28:47.033Z,8.43
2022-10-31T04:31:14.630Z,8.30
2022-10-31T04:33:43.433Z,10.18
2022-10-31T04:36:10.422Z,10.15
2022-10-31T04:38:37.591Z,9.07
2022-10-31T04:41:11.896Z,11.85
2022-10-31T04:43:59.037Z,16.85
2022-10-31T04:46:27.548Z,16.27
2022-10-31T04:48:55.571Z,21.08
2022-10-31T04:51:22.345Z,17.10
2022-10-31T04:53:49.153Z,8.13
2022-10-31T04:56:28.105Z,11.05
2022-10-31T04:59:05.229Z,12.02
2022-10-31T05:01:44.714Z,8.90
2022-10-31T05:04:11.949Z,13.85
2022-10-31T05:06:38.655Z,14.02
2022-10-31T05:09:05.476Z,13.55
2022-10-31T05:11:32.172Z,11.45
2022-10-31T05:14:09.632Z,11.93
2022-10-31T05:16:59.292Z,13.68
2022-10-31T05:19:46.221Z,13.15
2022-10-31T05:22:31.409Z,9.68
2022-10-31T05:24:58.231Z,13.57
2022-10-31T05:27:25.088Z,12.10
2022-10-31T05:29:52.147Z,10.55
2022-10-31T05:32:19.016Z,11.25
2022-10-31T05:35:21.288Z,10.15
2022-10-31T05:38:12.384Z,10.20
2022-10-31T05:40:39.181Z,10.30
2022-10-31T05:43:06.140Z,20.17
2022-10-31T05:45:32.832Z,20.05
2022-10-31T05:48:04.877Z,12.38
2022-10-31T05:51:01.300Z,8.82
2022-10-31T05:53:28.012Z,9.90
2022-10-31T05:55:55.500Z,10.50
2022-10-31T05:58:23.049Z,12.32
2022-10-31T06:00:58.377Z,6.30
2022-10-31T06:03:25.187Z,13.05
2022-10-31T06:05:58.862Z,10.90
2022-10-31T06:08:30.659Z,13.40
2022-10-31T06:11:01.279Z,8.38
2022-10-31T06:13:50.780Z,10.93
2022-10-31T06:16:23.438Z,15.30
2022-10-31T06:18:51.277Z,14.77
2022-10-31T06:21:19.240Z,18.77
2022-10-31T06:23:48.609Z,18.33
2022-10-31T06:26:39.195Z,18.52
2022-10-31T06:29:05.935Z,13.27
2022-10-31T06:31:57.132Z,14.27
2022-10-31T06:34:24.005Z,16.42
2022-10-31T06:36:50.715Z,10.85
2022-10-31T06:39:21.025Z,11.32
2022-10-31T06:41:50.817Z,11.75
2022-10-31T06:44:20.415Z,7.35
2022-10-31T06:46:59.535Z,11.75
2022-10-31T06:49:50.928Z,9.07
2022-10-31T06:52:21.187Z,13.77
2022-10-31T06:54:47.878Z,12.02
2022-10-31T06:59:42.029Z,20.63
2022-10-31T07:02:27.444Z,14.40
2022-10-31T07:04:57.315Z,16.17
2022-10-31T07:07:24.299Z,16.35
2022-10-31T07:09:51.532Z,17.33
2022-10-31T07:12:22.729Z,17.75
2022-10-31T07:14:56.750Z,14.02
2022-10-31T07:17:29.681Z,12.55
2022-10-31T07:19:58.637Z,12.40
2022-10-31T07:22:25.392Z,13.50
2022-10-31T07:24:52.179Z,18.15
2022-10-31T07:27:42.972Z,12.80
2022-10-31T07:30:13.378Z,16.92
2022-10-31T07:32:48.453Z,18.08
2022-10-31T07:35:19.728Z,13.38
2022-10-31T07:37:48.741Z,17.55
2022-10-31T07:40:17.139Z,11.70
2022-10-31T07:42:48.288Z,14.00
2022-10-31T07:45:34.936Z,13.07
2022-10-31T07:48:33.936Z,11.90
2022-10-31T07:51:20.734Z,17.75
2022-10-31T07:54:16.900Z,18.77
2022-10-31T07:56:43.579Z,16.20
2022-10-31T07:59:10.337Z,11.43
2022-10-31T08:01:37.039Z,10.65
2022-10-31T08:04:23.672Z,17.10
2022-10-31T08:07:09.042Z,10.63
2022-10-31T08:09:38.004Z,11.00
2022-10-31T08:12:15.738Z,14.05
2022-10-31T08:14:42.915Z,12.02
2022-10-31T08:17:09.739Z,12.70
2022-10-31T08:19:45.434Z,10.05
2022-10-31T08:22:14.943Z,14.10
2022-10-31T08:24:41.670Z,13.02
2022-10-31T08:27:08.464Z,15.45
2022-10-31T08:29:35.178Z,13.30
2022-10-31T08:32:02.021Z,12.98
2022-10-31T08:34:47.432Z,10.35
2022-10-31T08:37:32.793Z,16.77
2022-10-31T08:39:59.712Z,11.30
2022-10-31T08:42:26.423Z,13.18
2022-10-31T08:44:53.108Z,12.40
2022-10-31T08:47:22.118Z,18.45
2022-10-31T08:49:48.983Z,13.95
2022-10-31T08:52:16.967Z,9.75
2022-10-31T08:54:46.659Z,8.43
2022-10-31T08:57:48.493Z,14.73
2022-10-31T09:00:15.408Z,14.55
2022-10-31T09:03:01.705Z,10.23
2022-10-31T09:05:31.652Z,15.30
2022-10-31T09:08:00.217Z,11.65
2022-10-31T09:10:29.270Z,15.18
2022-10-31T09:13:00.685Z,9.68
2022-10-31T09:15:28.489Z,15.13
2022-10-31T09:18:21.533Z,12.00
2022-10-31T09:21:01.355Z,14.40
2022-10-31T09:23:30.784Z,11.15
2022-10-31T09:26:01.341Z,9.15
2022-10-31T09:28:32.742Z,17.77
2022-10-31T09:31:05.791Z,12.73
2022-10-31T09:33:55.969Z,10.27
2022-10-31T09:36:47.007Z,12.73
2022-10-31T09:39:18.807Z,13.80
2022-10-31T09:42:16.874Z,9.23
2022-10-31T09:44:56.797Z,8.95
2022-10-31T09:47:43.638Z,10.23
2022-10-31T09:50:48.424Z,14.73
2022-10-31T09:53:52.955Z,10.73
2022-10-31T09:56:25.701Z,9.85
2022-10-31T09:59:00.597Z,12.10
2022-10-31T10:01:39.903Z,9.70
2022-10-31T10:04:34.750Z,8.70
2022-10-31T10:07:22.471Z,10.93
2022-10-31T10:10:26.894Z,18.48
2022-10-31T10:13:23.532Z,13.32
2022-10-31T10:16:34.464Z,15.23
2022-10-31T10:19:24.379Z,10.48
2022-10-31T10:22:13.036Z,15.27
2022-10-31T10:24:56.545Z,14.45
2022-10-31T10:28:13.902Z,6.50
2022-10-31T10:30:45.296Z,10.57
2022-10-31T10:33:16.104Z,11.65
2022-10-31T10:35:54.255Z,14.00
2022-10-31T10:38:41.400Z,9.70
2022-10-31T10:41:17.421Z,12.13
2022-10-31T10:43:44.443Z,12.70
2022-10-31T10:46:37.199Z,7.47
2022-10-31T10:49:29.980Z,11.40
2022-10-31T10:52:46.016Z,8.18
2022-10-31T10:55:19.848Z,12.93
2022-10-31T10:57:51.091Z,7.80
2022-10-31T11:00:22.052Z,9.43
2022-10-31T11:02:49.420Z,10.85
2022-10-31T11:05:21.477Z,15.80
2022-10-31T11:07:48.133Z,8.80
2022-10-31T11:10:16.908Z,10.52
2022-10-31T11:13:03.456Z,11.85
2022-10-31T11:15:34.724Z,18.88
2022-10-31T11:18:02.254Z,11.23
2022-10-31T11:20:37.054Z,11.68
2022-10-31T11:23:19.024Z,8.32
2022-10-31T11:26:00.698Z,11.60
2022-10-31T11:28:33.330Z,15.68
2022-10-31T11:31:01.789Z,8.50
2022-10-31T11:33:38.600Z,9.38
2022-10-31T11:36:51.102Z,9.60
2022-10-31T11:39:22.170Z,10.48
2022-10-31T11:41:50.423Z,9.15
2022-10-31T11:44:21.916Z,9.88
2022-10-31T11:46:50.267Z,7.20
2022-10-31T11:49:30.410Z,8.90
2022-10-31T11:51:59.929Z,4.93
2022-10-31T11:54:30.061Z,15.73
2022-10-31T11:56:57.309Z,10.18
2022-10-31T12:01:52.860Z,8.35
2022-10-31T12:04:24.022Z,10.30
2022-10-31T12:06:52.427Z,8.52
2022-10-31T12:09:23.478Z,12.10
2022-10-31T12:12:01.224Z,8.95
2022-10-31T12:14:36.779Z,9.85
2022-10-31T12:17:19.057Z,10.82
2022-10-31T12:20:07.465Z,7.45
2022-10-31T12:25:27.364Z,5.70
2022-10-31T12:28:04.727Z,7.85
2022-10-31T12:30:50.250Z,12.55
2022-10-31T12:33:41.159Z,10.05
2022-10-31T12:36:50.607Z,10.80
2022-10-31T12:39:30.170Z,10.13
2022-10-31T12:42:37.828Z,11.43
2022-10-31T12:45:34.608Z,6.00
2022-10-31T12:48:01.254Z,10.32
2022-10-31T12:50:44.331Z,17.45
2022-10-31T12:53:51.064Z,11.45
2022-10-31T12:56:39.794Z,9.00
2022-10-31T12:59:38.637Z,10.15
2022-10-31T13:02:21.039Z,11.75
2022-10-31T13:05:05.724Z,9.38
2022-10-31T13:07:44.464Z,7.90
2022-10-31T13:10:29.122Z,8.30
2022-10-31T13:13:03.307Z,7.80
2022-10-31T13:15:34.344Z,8.75
2022-10-31T13:18:06.940Z,11.27
2022-10-31T13:20:42.724Z,13.88
2022-10-31T13:23:49.202Z,8.75
2022-10-31T13:26:23.611Z,13.98
2022-10-31T13:29:04.202Z,7.00
2022-10-31T13:31:31.009Z,9.82
2022-10-31T13:34:04.573Z,8.20
2022-10-31T13:36:38.031Z,13.15
2022-10-31T13:39:21.804Z,13.60
2022-10-31T13:42:11.425Z,12.73
2022-10-31T13:44:40.954Z,9.98
2022-10-31T13:47:37.172Z,11.23
2022-10-31T13:50:24.924Z,13.07
2022-10-31T13:52:51.843Z,11.23
2022-10-31T13:55:38.907Z,9.85
2022-10-31T13:58:20.917Z,6.13
2022-10-31T14:00:58.762Z,14.82
2022-10-31T14:03:57.456Z,12.38
2022-10-31T14:06:14.817Z,18.38
2022-10-31T14:08:51.223Z,19.65
2022-10-31T14:11:25.151Z,14.43
2022-10-31T14:13:52.043Z,16.13
2022-10-31T14:16:23.891Z,10.05
2022-10-31T14:19:00.036Z,11.65
2022-10-31T14:21:31.233Z,15.52
2022-10-31T14:23:58.396Z,15.13
2022-10-31T14:29:27.740Z,12.02
2022-10-31T14:32:19.098Z,14.35
2022-10-31T14:34:51.706Z,12.90
2022-10-31T14:37:26.998Z,9.45
2022-10-31T14:40:02.615Z,10.80
2022-10-31T14:43:00.095Z,8.00
2022-10-31T14:45:52.007Z,14.02
2022-10-31T14:48:47.185Z,13.52
2022-10-31T14:51:25.931Z,10.45
2022-10-31T14:53:55.509Z,8.98
2022-10-31T14:56:33.106Z,9.98
2022-10-31T14:59:12.882Z,10.85
2022-10-31T15:01:40.915Z,9.95
2022-10-31T15:04:23.468Z,13.52
2022-10-31T15:07:06.509Z,13.93
2022-10-31T15:09:35.086Z,9.57
2022-10-31T15:12:17.844Z,12.98
2022-10-31T15:14:44.543Z,15.40
2022-10-31T15:17:12.966Z,17.23
2022-10-31T15:19:40.181Z,9.90
2022-10-31T15:24:36.706Z,15.35
2022-10-31T15:27:05.317Z,11.82
2022-10-31T15:29:32.439Z,13.15
2022-10-31T15:32:01.851Z,19.23
2022-10-31T15:34:45.284Z,13.60
2022-10-31T15:37:17.468Z,15.63
2022-10-31T15:39:45.590Z,17.50
2022-10-31T15:42:33.480Z,11.60
2022-10-31T15:45:16.990Z,12.93
2022-10-31T15:47:53.825Z,16.75
2022-10-31T15:50:41.312Z,16.38
2022-10-31T15:53:18.799Z,11.98
2022-10-31T15:56:00.208Z,7.78
2022-10-31T15:58:28.085Z,9.77
2022-10-31T16:01:06.246Z,8.13
2022-10-31T16:03:34.823Z,10.85
2022-10-31T16:06:05.121Z,6.20
2022-10-31T16:08:31.773Z,13.90
2022-10-31T16:11:07.545Z,9.45
2022-10-31T16:13:42.292Z,13.40
2022-10-31T16:19:06.528Z,17.05
2022-10-31T16:21:37.368Z,22.25
2022-10-31T16:24:16.891Z,25.95
2022-10-31T16:26:49.426Z,28.05
2022-10-31T16:29:40.663Z,41.35
2022-10-31T16:32:36.785Z,46.83
2022-10-31T16:35:10.217Z,44.72
2022-10-31T16:37:41.476Z,34.72
2022-10-31T16:40:11.215Z,29.42
2022-10-31T16:42:37.923Z,32.03
2022-10-31T16:45:07.131Z,18.55
2022-10-31T16:47:33.803Z,22.67
2022-10-31T16:50:01.347Z,19.42
2022-10-31T16:52:31.492Z,24.58
2022-10-31T16:55:01.959Z,14.13
2022-10-31T16:57:31.660Z,21.60
2022-10-31T16:59:58.689Z,18.92
2022-10-31T17:02:25.794Z,15.50
2022-10-31T17:07:23.686Z,23.83
2022-10-31T17:09:50.434Z,29.05
2022-10-31T17:12:21.408Z,27.88
2022-10-31T17:14:51.120Z,32.58
2022-10-31T17:17:17.795Z,32.35
2022-10-31T17:19:44.475Z,32.38
2022-10-31T17:22:15.018Z,29.33
2022-10-31T17:24:41.702Z,25.30
2022-10-31T17:27:08.437Z,24.10
2022-10-31T17:29:35.370Z,23.98
2022-10-31T17:32:03.766Z,23.45
2022-10-31T17:34:30.965Z,15.48
2022-10-31T17:36:57.659Z,23.65
2022-10-31T17:39:24.352Z,27.20
2022-10-31T17:41:52.397Z,21.67
2022-10-31T17:44:19.240Z,16.60
2022-10-31T17:46:45.952Z,20.00
2022-10-31T17:49:12.807Z,24.38
2022-10-31T17:51:39.544Z,17.60
2022-10-31T17:54:06.958Z,22.92
2022-10-31T17:59:00.278Z,23.63
2022-10-31T18:01:27.131Z,16.55
2022-10-31T18:03:53.873Z,11.75
2022-10-31T18:06:20.657Z,20.30
2022-10-31T18:08:47.396Z,32.92
2022-10-31T18:11:17.442Z,20.08
2022-10-31T18:13:44.146Z,17.05
2022-10-31T18:16:12.806Z,17.30
2022-10-31T18:18:40.011Z,9.25
2022-10-31T18:21:07.074Z,13.95
2022-10-31T18:23:34.050Z,21.85
2022-10-31T18:26:00.727Z,21.55
2022-10-31T18:28:27.453Z,22.98
2022-10-31T18:30:54.159Z,28.35
2022-10-31T18:33:20.843Z,24.65
2022-10-31T18:35:47.648Z,38.00
2022-10-31T18:38:14.523Z,40.95
2022-10-31T18:40:41.273Z,35.92
2022-10-31T18:43:08.165Z,36.47
2022-10-31T18:45:46.641Z,27.27
2022-10-31T18:48:15.362Z,24.77
2022-10-31T18:50:42.645Z,17.30
2022-10-31T18:55:43.990Z,13.63
2022-10-31T19:00:41.084Z,17.88
2022-10-31T19:03:07.788Z,20.15
2022-10-31T19:05:34.556Z,19.02
2022-10-31T19:08:01.270Z,31.95
2022-10-31T19:10:28.060Z,24.05
2022-10-31T19:12:54.876Z,22.95
2022-10-31T19:15:21.640Z,34.80
2022-10-31T19:17:48.354Z,20.13
2022-10-31T19:20:15.114Z,24.02
2022-10-31T19:22:41.786Z,20.35
2022-10-31T19:25:10.666Z,17.02
2022-10-31T19:27:37.962Z,21.83
2022-10-31T19:30:05.988Z,20.63
2022-10-31T19:32:32.985Z,19.30
2022-10-31T19:34:59.839Z,19.30
2022-10-31T19:37:26.614Z,18.70
2022-10-31T19:39:53.290Z,19.92
2022-10-31T19:42:20.199Z,21.00
2022-10-31T19:44:46.925Z,15.98
2022-10-31T19:47:13.636Z,28.58
2022-10-31T19:49:40.319Z,16.92
2022-10-31T19:52:07.033Z,32.78
2022-10-31T19:54:34.243Z,26.52
2022-10-31T19:57:00.932Z,21.67
2022-10-31T19:59:27.623Z,23.35
2022-10-31T20:01:54.390Z,20.85
2022-10-31T20:04:21.125Z,19.90
2022-10-31T20:06:47.811Z,23.45
2022-10-31T20:09:14.961Z,21.98
2022-10-31T20:11:43.793Z,34.70
2022-10-31T20:14:16.259Z,29.48
2022-10-31T20:16:44.167Z,43.65
2022-10-31T20:19:10.888Z,38.13
2022-10-31T20:21:40.040Z,25.63
2022-10-31T20:24:09.610Z,20.33
2022-10-31T20:26:39.000Z,20.42
2022-10-31T20:29:05.799Z,17.73
2022-10-31T20:31:34.873Z,21.15
2022-10-31T20:34:01.897Z,14.93
2022-10-31T20:36:29.547Z,19.48
2022-10-31T20:38:56.618Z,18.42
2022-10-31T20:41:23.330Z,14.15
2022-10-31T20:43:50.104Z,17.42
2022-10-31T20:46:27.015Z,14.88
2022-10-31T20:48:54.481Z,19.88
2022-10-31T20:51:24.753Z,18.50
2022-10-31T20:53:52.943Z,17.30
2022-10-31T20:56:21.875Z,12.18
2022-10-31T20:58:49.918Z,9.18
2022-10-31T21:01:22.516Z,11.82
2022-10-31T21:03:50.288Z,10.02
2022-10-31T21:06:18.476Z,18.30
2022-10-31T21:08:45.632Z,33.33
2022-10-31T21:11:16.054Z,35.20
2022-10-31T21:13:44.299Z,23.65
2022-10-31T21:16:13.655Z,21.33
2022-10-31T21:18:42.574Z,24.70
2022-10-31T21:21:15.155Z,27.88
2022-10-31T21:23:43.143Z,19.80
2022-10-31T21:26:21.928Z,17.23
2022-10-31T21:28:49.888Z,16.90
2022-10-31T21:31:18.039Z,13.68
2022-10-31T21:33:45.620Z,15.90
2022-10-31T21:36:12.739Z,12.98
2022-10-31T21:38:39.926Z,11.30
2022-10-31T21:41:11.969Z,12.63
2022-10-31T21:44:19.764Z,24.60
2022-10-31T21:46:47.998Z,14.50
2022-10-31T21:49:14.918Z,13.60
2022-10-31T21:51:43.961Z,16.73
2022-10-31T21:54:28.244Z,20.30
2022-10-31T21:56:56.476Z,20.50
2022-10-31T21:59:23.260Z,12.85
2022-10-31T22:01:50.627Z,16.52
2022-10-31T22:06:44.598Z,18.13
2022-10-31T22:09:13.558Z,12.35
2022-10-31T22:11:41.888Z,11.30
2022-10-31T22:14:12.766Z,20.10
2022-10-31T22:16:39.862Z,17.48
2022-10-31T22:19:07.694Z,13.38
2022-10-31T22:21:41.423Z,17.73
2022-10-31T22:24:09.077Z,16.67
2022-10-31T22:26:37.227Z,14.73
2022-10-31T22:29:07.001Z,10.27
2022-10-31T22:31:37.118Z,11.68
2022-10-31T22:34:03.835Z,10.77
2022-10-31T22:36:31.780Z,8.05
2022-10-31T22:38:59.273Z,12.88
2022-10-31T22:41:31.576Z,11.25
2022-10-31T22:43:58.925Z,18.00
2022-10-31T22:48:57.216Z,14.98
2022-10-31T22:51:26.623Z,9.52
2022-10-31T22:53:56.527Z,13.70
2022-10-31T22:56:26.413Z,13.30
2022-10-31T22:58:53.640Z,16.83
2022-10-31T23:01:22.899Z,8.55
2022-10-31T23:03:50.722Z,10.32
2022-10-31T23:06:25.408Z,14.82
2022-10-31T23:08:52.544Z,13.10
2022-10-31T23:11:28.249Z,10.52
2022-10-31T23:14:09.421Z,9.63
2022-10-31T23:16:37.177Z,13.45
2022-10-31T23:19:08.034Z,14.02
2022-10-31T23:21:55.262Z,12.40
2022-10-31T23:24:22.927Z,11.15
2022-10-31T23:27:08.791Z,9.15
2022-10-31T23:29:39.049Z,12.13
2022-10-31T23:32:09.462Z,11.70
2022-10-31T23:34:36.475Z,8.45
2022-10-31T23:37:03.337Z,9.60
2022-10-31T23:39:30.387Z,6.70
2022-10-31T23:41:57.120Z,12.68
2022-10-31T23:44:23.818Z,16.73
2022-10-31T23:46:50.558Z,7.60
2022-10-31T23:49:17.388Z,8.57
2022-10-31T23:51:44.146Z,15.23
2022-10-31T23:54:11.011Z,12.35
2022-10-31T23:56:37.687Z,6.47
2022-10-31T23:59:06.060Z,8.13
